METAR / TAF

Die METAR- und TAF-Liste ist aus technischen Gründen (Verfügbarkeit, Update-Zyklen) nicht für ein Meteo-Briefing gedacht. Benutzen Sie stattdessen skybriefing der Skyguide  oder das TAMSI (MeteoSchweiz-eigene Meteo Selfbriefing-Plattform für Firmen aus der Aviatik; Anfragen über das

Kontaktformular

METAR Switzerland

METAR     LSZH 170720Z VRB01KT CAVOK 11/08 Q1017 NOSIG=
METAR     LSZH 170750Z VRB01KT CAVOK 13/08 Q1017 NOSIG=
METAR     LSGG 170720Z VRB01KT CAVOK 12/09 Q1017 NOSIG=
METAR     LSGG 170750Z VRB02KT 9999 FEW080 BKN140 13/08 Q1017 NOSIG=
METAR     LFSB 170730Z 18004KT 150V210 CAVOK 12/09 Q1016 NOSIG=
METAR     LSZB 170720Z 10005KT 9999 SCT100 10/08 Q1017 NOSIG=
METAR     LSZB 170750Z 15003KT 9999 SCT100 11/09 Q1017 NOSIG=
METAR     LSZA 170720Z VRB01KT CAVOK 08/08 Q1021 NOSIG=
METAR     LSZA 170750Z VRB01KT 9999 FEW060 11/11 Q1020 NOSIG=
METAR     LSZG 170720Z 08001KT CAVOK 09/09 Q1017 NOSIG=
METAR     LSZG 170750Z VRB01KT CAVOK 10/09 Q1017 NOSIG=
METAR     LSZR 170720Z 11004KT CAVOK 10/10 Q1018 NOSIG RMK D=
METAR     LSZR 170750Z 11004KT CAVOK 10/10 Q1017 NOSIG RMK D=
METAR     LSGS 170720Z 06004KT 9999 FEW120 09/05 Q1019=
METAR     LSGS 170750Z 08005KT CAVOK 10/06 Q1019=
METAR     LSGC 170720Z 24002KT CAVOK 10/05 Q1017=
METAR     LSGC 170750Z VRB01KT CAVOK 10/06 Q1017=
METAR     LSZC 170720Z VRB01KT 9999 SCT120 09/07 Q1017=
METAR     LSZC 170750Z 23004KT 9999 FEW100 10/07 Q1018=
METAR     LSZL 170720Z 00000KT CAVOK 09/09 Q1021 RMK BLU=
METAR     LSZL 170750Z VRB01KT CAVOK 10/09 Q1021 RMK BLU=
METAR     LSZS 170720Z 21003KT 9999 BCFG NSC M04/M04 Q1022 RMK D=
METAR     LSZS 170750Z VRB01KT CAVOK M02/M02 Q1021 RMK E=
METAR     LSMA 170720Z 24002KT 9999 FEW110 09/08 Q1018 RMK BLU+=
METAR     LSMA 170750Z 19002KT 9999 FEW120 10/08 Q1018 RMK BLU+=
METAR     LSMD 170720Z VRB01KT 9999 FEW091 10/07 Q1017 RMK BLU+=
METAR     LSMD 170750Z 16003KT 020V190 9999 FEW086 12/08 Q1017 RMK
               BLU+=
METAR     LSME 170720Z VRB01KT 9999 FEW100 SCT130 10/08 Q1017 RMK
               BLU+=
METAR     LSME 170750Z 00000KT 9999 FEW110 11/08 Q1018 RMK BLU+=
METAR     LSMM 170720Z 00000KT 9999 FEW099 08/06 Q1017 RMK BLU+=
METAR     LSMM 170750Z VRB01KT CAVOK 10/07 Q1018 RMK BLU=
METAR RRA LSMP 170750Z 00000KT CAVOK 10/08 Q1017 RMK BLU=
METAR     LSMP 170720Z 00000KT CAVOK 10/08 Q1017 RMK BLU=
Updated on Thursday, 17 October 2019, 10:10

TAF Switzerland

TAF     LSZH 170525Z 1706/1812 VRB02KT CAVOK TX19/1714Z TN07/1706Z
             TN10/1805Z BECMG 1718/1721 9999 BKN070 PROB40 TEMPO
             1719/1804 RA PROB30 1804/1807 4500 BR BECMG 1808/1811
             CAVOK=
TAF     LSGG 170525Z 1706/1812 23006KT 9999 FEW080 BKN110
             TX18/1715Z TN10/1706Z TN12/1805Z TEMPO 1715/1719 RA=
TAF     LFSB 170500Z 1706/1806 16005KT CAVOK BECMG 1713/1716 -RA
             PROB30 TEMPO 1714/1717 RA BKN025TCU=
TAF     LSGS 170525Z 1706/1715 VRB03KT 9999 SCT090 BKN110=
TAF     LSZA 170525Z 1706/1715 VRB03KT CAVOK PROB40 TEMPO 1708/1715
             9999 FEW040=
TAF     LSZB 170525Z 1706/1715 11005KT 9999 SCT080 BKN100 PROB40
             TEMPO 1708/1714 CAVOK=
TAF     LSZG 170525Z 1706/1715 27001KT CAVOK PROB40 1706/1708 4500
             BR PROB30 1706/1707 2500 BCFG BECMG 1712/1715 9999
             BKN060=
TAF     LSZL 170525Z 1706/1715 09001KT CAVOK TEMPO 1706/1715 9999
             FEW060 SCT140=
TAF     LSZR 170525Z 1706/1715 12003KT CAVOK=
TAF     LSGC 170525Z 1706/1715 24006KT 9999 SCT030 BKN045=
TAF     LSZC 170525Z 1706/1715 VRB02KT 9999 FEW120 OVC140 PROB40
             1706/1708 4500 BR PROB30 1706/1707 2500 BCFG TEMPO
             1708/1712 CAVOK=
TAF AAA LSZS 170601Z 1706/1715 VRB01KT 9999 FEW002 TX11/1713Z BECMG
             1706/1708 CAVOK=
TAF     LSZS 170525Z 1706/1715 VRB01KT CAVOK TX11/1713Z=
TAF     LSMA 161625Z 1617/1723 VRB03KT CAVOK BECMG 1701/1704 9999
             BKN090=
TAF     LSMD 161625Z 1617/1723 VRB03KT CAVOK PROB40 1700/1706 1500
             BCFG BECMG 1701/1704 9999 BKN090 TEMPO 1708/1718
             CAVOK=
TAF     LSME 161625Z 1617/1723 VRB03KT CAVOK PROB40 1700/1706 1500
             BCFG BECMG 1701/1704 9999 BKN090 TEMPO 1708/1718
             CAVOK=
TAF     LSMM 161625Z 1617/1723 VRB03KT CAVOK BECMG 1701/1704 9999
             BKN090=
TAF     LSMP 170525Z 1706/1812 VRB03KT 9999 FEW060 BKN090 TEMPO
             1717/1721 RA=
Updated on Thursday, 17 October 2019, 10:03